sensor_id;sensor_type;location;lat;lon;timestamp;temperature;humidity
59162;DHT22;44942;48.936;8.260;2023-08-06T00:02:52;25.10;56.50
59162;DHT22;44942;48.936;8.260;2023-08-06T00:07:53;25.10;56.40
59162;DHT22;44942;48.936;8.260;2023-08-06T00:12:53;25.10;56.40
59162;DHT22;44942;48.936;8.260;2023-08-06T00:17:54;25.10;56.50
59162;DHT22;44942;48.936;8.260;2023-08-06T00:22:55;25.10;56.60
59162;DHT22;44942;48.936;8.260;2023-08-06T00:27:55;25.10;56.60
59162;DHT22;44942;48.936;8.260;2023-08-06T00:32:56;25.10;56.60
59162;DHT22;44942;48.936;8.260;2023-08-06T00:37:57;25.10;56.70
59162;DHT22;44942;48.936;8.260;2023-08-06T00:42:58;25.10;56.60
59162;DHT22;44942;48.936;8.260;2023-08-06T00:47:59;25.10;56.60
59162;DHT22;44942;48.936;8.260;2023-08-06T00:53:03;25.10;56.60
59162;DHT22;44942;48.936;8.260;2023-08-06T00:58:04;25.10;56.60
59162;DHT22;44942;48.936;8.260;2023-08-06T01:03:05;25.10;56.50
59162;DHT22;44942;48.936;8.260;2023-08-06T01:08:49;25.10;56.60
59162;DHT22;44942;48.936;8.260;2023-08-06T01:14:08;25.10;56.70
59162;DHT22;44942;48.936;8.260;2023-08-06T01:19:18;25.10;56.80
59162;DHT22;44942;48.936;8.260;2023-08-06T01:24:19;25.10;56.50
59162;DHT22;44942;48.936;8.260;2023-08-06T01:29:27;25.10;56.50
59162;DHT22;44942;48.936;8.260;2023-08-06T01:34:33;25.10;56.40
59162;DHT22;44942;48.936;8.260;2023-08-06T01:39:34;25.10;56.40
59162;DHT22;44942;48.936;8.260;2023-08-06T01:44:35;25.10;56.30
59162;DHT22;44942;48.936;8.260;2023-08-06T01:49:35;25.10;56.30
59162;DHT22;44942;48.936;8.260;2023-08-06T01:54:36;25.10;56.40
59162;DHT22;44942;48.936;8.260;2023-08-06T01:59:37;25.10;56.40
59162;DHT22;44942;48.936;8.260;2023-08-06T02:04:37;25.10;56.30
59162;DHT22;44942;48.936;8.260;2023-08-06T02:09:38;25.10;56.30
59162;DHT22;44942;48.936;8.260;2023-08-06T02:14:38;25.10;56.30
59162;DHT22;44942;48.936;8.260;2023-08-06T02:19:39;25.10;56.30
59162;DHT22;44942;48.936;8.260;2023-08-06T02:24:40;25.10;56.30
59162;DHT22;44942;48.936;8.260;2023-08-06T02:29:40;25.10;56.20
59162;DHT22;44942;48.936;8.260;2023-08-06T02:34:41;25.10;56.20
59162;DHT22;44942;48.936;8.260;2023-08-06T02:39:42;25.10;56.20
59162;DHT22;44942;48.936;8.260;2023-08-06T02:44:43;25.10;56.30
59162;DHT22;44942;48.936;8.260;2023-08-06T02:49:44;25.00;56.00
59162;DHT22;44942;48.936;8.260;2023-08-06T02:54:44;25.00;56.10
59162;DHT22;44942;48.936;8.260;2023-08-06T02:59:45;25.10;56.10
59162;DHT22;44942;48.936;8.260;2023-08-06T03:04:45;25.10;56.00
59162;DHT22;44942;48.936;8.260;2023-08-06T03:09:46;25.00;56.00
59162;DHT22;44942;48.936;8.260;2023-08-06T03:14:46;25.10;56.00
59162;DHT22;44942;48.936;8.260;2023-08-06T03:19:47;25.00;56.00
59162;DHT22;44942;48.936;8.260;2023-08-06T03:24:50;25.10;56.00
59162;DHT22;44942;48.936;8.260;2023-08-06T03:29:51;25.10;56.10
59162;DHT22;44942;48.936;8.260;2023-08-06T03:34:52;25.00;56.00
59162;DHT22;44942;48.936;8.260;2023-08-06T03:39:52;25.00;55.90
59162;DHT22;44942;48.936;8.260;2023-08-06T03:44:53;25.00;56.50
59162;DHT22;44942;48.936;8.260;2023-08-06T03:49:53;25.00;55.90
59162;DHT22;44942;48.936;8.260;2023-08-06T03:54:54;25.10;55.80
59162;DHT22;44942;48.936;8.260;2023-08-06T03:59:54;25.10;55.70
59162;DHT22;44942;48.936;8.260;2023-08-06T04:04:55;25.10;55.70
59162;DHT22;44942;48.936;8.260;2023-08-06T04:10:00;25.10;55.70
59162;DHT22;44942;48.936;8.260;2023-08-06T04:15:01;25.10;55.80
59162;DHT22;44942;48.936;8.260;2023-08-06T04:20:02;25.00;55.70
59162;DHT22;44942;48.936;8.260;2023-08-06T04:25:03;25.00;55.60
59162;DHT22;44942;48.936;8.260;2023-08-06T04:30:04;25.00;55.60
59162;DHT22;44942;48.936;8.260;2023-08-06T04:35:05;25.00;55.60
59162;DHT22;44942;48.936;8.260;2023-08-06T04:40:06;25.00;55.50
59162;DHT22;44942;48.936;8.260;2023-08-06T04:45:08;25.00;55.50
59162;DHT22;44942;48.936;8.260;2023-08-06T04:50:08;25.00;55.50
59162;DHT22;44942;48.936;8.260;2023-08-06T04:55:09;25.00;55.40
59162;DHT22;44942;48.936;8.260;2023-08-06T05:00:10;25.00;55.40
59162;DHT22;44942;48.936;8.260;2023-08-06T05:05:10;25.00;55.30
59162;DHT22;44942;48.936;8.260;2023-08-06T05:10:11;25.00;55.30
59162;DHT22;44942;48.936;8.260;2023-08-06T05:15:11;25.00;55.30
59162;DHT22;44942;48.936;8.260;2023-08-06T05:20:12;25.00;55.20
59162;DHT22;44942;48.936;8.260;2023-08-06T05:25:13;25.00;55.20
59162;DHT22;44942;48.936;8.260;2023-08-06T05:30:15;25.00;55.20
59162;DHT22;44942;48.936;8.260;2023-08-06T05:35:15;25.00;55.20
59162;DHT22;44942;48.936;8.260;2023-08-06T05:40:16;25.00;55.20
59162;DHT22;44942;48.936;8.260;2023-08-06T05:45:16;25.00;55.20
59162;DHT22;44942;48.936;8.260;2023-08-06T05:50:17;25.00;55.20
59162;DHT22;44942;48.936;8.260;2023-08-06T05:55:18;25.00;55.20
59162;DHT22;44942;48.936;8.260;2023-08-06T06:00:19;25.00;55.10
59162;DHT22;44942;48.936;8.260;2023-08-06T06:05:19;25.00;55.10
59162;DHT22;44942;48.936;8.260;2023-08-06T06:10:20;25.00;55.10
59162;DHT22;44942;48.936;8.260;2023-08-06T06:15:20;25.00;55.00
59162;DHT22;44942;48.936;8.260;2023-08-06T06:20:21;25.00;55.10
59162;DHT22;44942;48.936;8.260;2023-08-06T06:25:22;25.00;55.10
59162;DHT22;44942;48.936;8.260;2023-08-06T06:30:22;25.00;55.00
59162;DHT22;44942;48.936;8.260;2023-08-06T06:35:23;24.90;54.90
59162;DHT22;44942;48.936;8.260;2023-08-06T06:40:23;25.00;54.90
59162;DHT22;44942;48.936;8.260;2023-08-06T06:45:24;25.00;54.90
59162;DHT22;44942;48.936;8.260;2023-08-06T06:50:24;24.90;54.80
59162;DHT22;44942;48.936;8.260;2023-08-06T06:55:26;25.00;54.80
59162;DHT22;44942;48.936;8.260;2023-08-06T07:00:27;25.00;54.90
59162;DHT22;44942;48.936;8.260;2023-08-06T07:05:28;25.00;54.90
59162;DHT22;44942;48.936;8.260;2023-08-06T07:10:29;24.90;54.80
59162;DHT22;44942;48.936;8.260;2023-08-06T07:15:29;24.90;54.90
59162;DHT22;44942;48.936;8.260;2023-08-06T07:20:30;24.90;54.80
59162;DHT22;44942;48.936;8.260;2023-08-06T07:25:33;25.00;54.80
59162;DHT22;44942;48.936;8.260;2023-08-06T07:30:33;25.00;54.80
59162;DHT22;44942;48.936;8.260;2023-08-06T07:35:34;24.90;54.80
59162;DHT22;44942;48.936;8.260;2023-08-06T07:40:35;25.00;54.90
59162;DHT22;44942;48.936;8.260;2023-08-06T07:45:37;25.00;54.90
59162;DHT22;44942;48.936;8.260;2023-08-06T07:50:37;24.90;54.80
59162;DHT22;44942;48.936;8.260;2023-08-06T07:55:38;25.00;54.90
59162;DHT22;44942;48.936;8.260;2023-08-06T08:00:40;24.90;54.80
59162;DHT22;44942;48.936;8.260;2023-08-06T08:05:43;24.90;54.70
59162;DHT22;44942;48.936;8.260;2023-08-06T08:10:44;24.90;54.70
59162;DHT22;44942;48.936;8.260;2023-08-06T08:15:45;24.90;54.50
59162;DHT22;44942;48.936;8.260;2023-08-06T08:20:46;24.80;54.50
59162;DHT22;44942;48.936;8.260;2023-08-06T08:25:47;24.80;54.40
59162;DHT22;44942;48.936;8.260;2023-08-06T08:30:47;24.80;54.30
59162;DHT22;44942;48.936;8.260;2023-08-06T08:35:48;24.80;54.30
59162;DHT22;44942;48.936;8.260;2023-08-06T08:40:51;24.80;54.20
59162;DHT22;44942;48.936;8.260;2023-08-06T08:45:53;24.80;54.20
59162;DHT22;44942;48.936;8.260;2023-08-06T08:50:59;24.70;54.10
59162;DHT22;44942;48.936;8.260;2023-08-06T08:56:00;24.70;54.10
59162;DHT22;44942;48.936;8.260;2023-08-06T09:01:02;24.70;54.20
59162;DHT22;44942;48.936;8.260;2023-08-06T09:06:04;24.60;54.20
59162;DHT22;44942;48.936;8.260;2023-08-06T09:11:05;24.60;54.20
59162;DHT22;44942;48.936;8.260;2023-08-06T09:16:09;24.60;54.20
59162;DHT22;44942;48.936;8.260;2023-08-06T09:21:14;24.60;54.30
59162;DHT22;44942;48.936;8.260;2023-08-06T09:26:16;24.60;54.30
59162;DHT22;44942;48.936;8.260;2023-08-06T09:31:17;24.60;54.30
59162;DHT22;44942;48.936;8.260;2023-08-06T09:36:17;24.60;54.50
59162;DHT22;44942;48.936;8.260;2023-08-06T09:41:27;24.60;54.50
59162;DHT22;44942;48.936;8.260;2023-08-06T09:46:32;24.60;54.50
59162;DHT22;44942;48.936;8.260;2023-08-06T09:51:32;24.60;54.60
59162;DHT22;44942;48.936;8.260;2023-08-06T09:56:34;24.50;54.60
59162;DHT22;44942;48.936;8.260;2023-08-06T10:01:38;24.50;54.60
59162;DHT22;44942;48.936;8.260;2023-08-06T10:06:38;24.50;54.70
59162;DHT22;44942;48.936;8.260;2023-08-06T10:11:40;24.50;54.70
59162;DHT22;44942;48.936;8.260;2023-08-06T10:16:42;24.50;54.70
59162;DHT22;44942;48.936;8.260;2023-08-06T10:22:10;24.40;54.60
59162;DHT22;44942;48.936;8.260;2023-08-06T10:27:11;24.40;54.50
59162;DHT22;44942;48.936;8.260;2023-08-06T10:32:12;24.40;54.40
59162;DHT22;44942;48.936;8.260;2023-08-06T10:37:15;24.40;54.50
59162;DHT22;44942;48.936;8.260;2023-08-06T10:42:27;24.40;54.30
59162;DHT22;44942;48.936;8.260;2023-08-06T10:47:27;24.40;54.30
59162;DHT22;44942;48.936;8.260;2023-08-06T10:52:31;24.40;54.30
59162;DHT22;44942;48.936;8.260;2023-08-06T10:57:31;24.30;54.20
59162;DHT22;44942;48.936;8.260;2023-08-06T11:02:36;24.30;54.30
59162;DHT22;44942;48.936;8.260;2023-08-06T11:07:37;24.30;54.30
59162;DHT22;44942;48.936;8.260;2023-08-06T11:12:38;24.30;54.20
59162;DHT22;44942;48.936;8.260;2023-08-06T11:17:40;24.30;54.30
59162;DHT22;44942;48.936;8.260;2023-08-06T11:22:41;24.30;54.20
59162;DHT22;44942;48.936;8.260;2023-08-06T11:27:42;24.30;54.30
59162;DHT22;44942;48.936;8.260;2023-08-06T11:32:46;24.30;55.00
59162;DHT22;44942;48.936;8.260;2023-08-06T11:37:47;24.30;54.20
59162;DHT22;44942;48.936;8.260;2023-08-06T11:42:48;24.30;54.20
59162;DHT22;44942;48.936;8.260;2023-08-06T11:47:52;24.30;54.20
59162;DHT22;44942;48.936;8.260;2023-08-06T11:53:00;24.30;54.20
59162;DHT22;44942;48.936;8.260;2023-08-06T11:58:04;24.30;54.20
59162;DHT22;44942;48.936;8.260;2023-08-06T12:03:07;24.30;54.10
59162;DHT22;44942;48.936;8.260;2023-08-06T12:08:09;24.30;54.10
59162;DHT22;44942;48.936;8.260;2023-08-06T12:13:09;24.30;54.00
59162;DHT22;44942;48.936;8.260;2023-08-06T12:18:11;24.30;54.00
59162;DHT22;44942;48.936;8.260;2023-08-06T12:23:12;24.20;53.90
59162;DHT22;44942;48.936;8.260;2023-08-06T12:28:15;24.20;53.80
59162;DHT22;44942;48.936;8.260;2023-08-06T12:33:16;24.20;53.70
59162;DHT22;44942;48.936;8.260;2023-08-06T12:38:16;24.20;53.70
59162;DHT22;44942;48.936;8.260;2023-08-06T12:43:17;24.20;53.60
59162;DHT22;44942;48.936;8.260;2023-08-06T12:48:18;24.20;53.60
59162;DHT22;44942;48.936;8.260;2023-08-06T12:53:19;24.20;53.60
59162;DHT22;44942;48.936;8.260;2023-08-06T12:58:22;24.20;53.50
59162;DHT22;44942;48.936;8.260;2023-08-06T13:03:23;24.20;53.60
59162;DHT22;44942;48.936;8.260;2023-08-06T13:08:23;24.20;53.70
59162;DHT22;44942;48.936;8.260;2023-08-06T13:13:24;24.20;53.80
59162;DHT22;44942;48.936;8.260;2023-08-06T13:18:27;24.20;54.00
59162;DHT22;44942;48.936;8.260;2023-08-06T13:23:29;24.20;54.10
59162;DHT22;44942;48.936;8.260;2023-08-06T13:28:30;24.20;54.30
59162;DHT22;44942;48.936;8.260;2023-08-06T13:33:30;24.20;54.30
59162;DHT22;44942;48.936;8.260;2023-08-06T13:38:31;24.30;54.40
59162;DHT22;44942;48.936;8.260;2023-08-06T13:43:31;24.30;54.40
59162;DHT22;44942;48.936;8.260;2023-08-06T13:48:32;24.30;54.40
59162;DHT22;44942;48.936;8.260;2023-08-06T13:53:33;24.30;54.50
59162;DHT22;44942;48.936;8.260;2023-08-06T13:58:33;24.30;54.40
59162;DHT22;44942;48.936;8.260;2023-08-06T14:03:34;24.30;54.30
59162;DHT22;44942;48.936;8.260;2023-08-06T14:08:34;24.30;54.30
59162;DHT22;44942;48.936;8.260;2023-08-06T14:13:35;24.30;54.30
59162;DHT22;44942;48.936;8.260;2023-08-06T14:18:38;24.30;54.30
59162;DHT22;44942;48.936;8.260;2023-08-06T14:23:38;24.30;54.20
59162;DHT22;44942;48.936;8.260;2023-08-06T14:28:41;24.30;54.20
59162;DHT22;44942;48.936;8.260;2023-08-06T14:33:42;24.30;53.90
59162;DHT22;44942;48.936;8.260;2023-08-06T14:38:43;24.30;53.60
59162;DHT22;44942;48.936;8.260;2023-08-06T14:43:43;24.30;53.20
59162;DHT22;44942;48.936;8.260;2023-08-06T14:48:44;24.20;53.00
59162;DHT22;44942;48.936;8.260;2023-08-06T14:53:44;24.20;52.80
59162;DHT22;44942;48.936;8.260;2023-08-06T14:58:45;24.20;52.80
59162;DHT22;44942;48.936;8.260;2023-08-06T15:03:46;24.20;52.60
59162;DHT22;44942;48.936;8.260;2023-08-06T15:08:46;24.20;52.40
59162;DHT22;44942;48.936;8.260;2023-08-06T15:13:51;24.20;52.30
59162;DHT22;44942;48.936;8.260;2023-08-06T15:18:52;24.20;52.20
59162;DHT22;44942;48.936;8.260;2023-08-06T15:23:54;24.10;52.10
59162;DHT22;44942;48.936;8.260;2023-08-06T15:28:54;24.10;52.10
59162;DHT22;44942;48.936;8.260;2023-08-06T15:33:55;24.10;52.10
59162;DHT22;44942;48.936;8.260;2023-08-06T15:38:55;24.10;52.10
59162;DHT22;44942;48.936;8.260;2023-08-06T15:43:56;24.10;52.20
59162;DHT22;44942;48.936;8.260;2023-08-06T15:48:56;24.10;52.20
59162;DHT22;44942;48.936;8.260;2023-08-06T15:53:57;24.20;52.50
59162;DHT22;44942;48.936;8.260;2023-08-06T15:58:57;24.10;53.10
59162;DHT22;44942;48.936;8.260;2023-08-06T16:03:58;24.10;52.40
59162;DHT22;44942;48.936;8.260;2023-08-06T16:08:58;24.10;52.20
59162;DHT22;44942;48.936;8.260;2023-08-06T16:13:59;24.10;52.40
59162;DHT22;44942;48.936;8.260;2023-08-06T16:19:02;24.10;52.40
59162;DHT22;44942;48.936;8.260;2023-08-06T16:24:06;24.00;52.40
59162;DHT22;44942;48.936;8.260;2023-08-06T16:29:07;24.00;52.50
59162;DHT22;44942;48.936;8.260;2023-08-06T16:34:07;24.00;52.60
59162;DHT22;44942;48.936;8.260;2023-08-06T16:39:08;24.00;52.60
59162;DHT22;44942;48.936;8.260;2023-08-06T16:44:09;24.00;52.70
59162;DHT22;44942;48.936;8.260;2023-08-06T16:49:12;24.00;52.70
59162;DHT22;44942;48.936;8.260;2023-08-06T16:54:13;24.00;52.80
59162;DHT22;44942;48.936;8.260;2023-08-06T16:59:13;24.00;52.70
59162;DHT22;44942;48.936;8.260;2023-08-06T17:04:14;24.00;52.70
59162;DHT22;44942;48.936;8.260;2023-08-06T17:09:14;24.00;52.70
59162;DHT22;44942;48.936;8.260;2023-08-06T17:14:15;24.10;52.70
59162;DHT22;44942;48.936;8.260;2023-08-06T17:19:15;24.00;52.80
59162;DHT22;44942;48.936;8.260;2023-08-06T17:24:19;24.00;52.90
59162;DHT22;44942;48.936;8.260;2023-08-06T17:29:19;24.00;53.00
59162;DHT22;44942;48.936;8.260;2023-08-06T17:34:20;24.10;53.30
59162;DHT22;44942;48.936;8.260;2023-08-06T17:39:20;24.00;53.40
59162;DHT22;44942;48.936;8.260;2023-08-06T17:44:21;24.00;53.60
59162;DHT22;44942;48.936;8.260;2023-08-06T17:49:22;24.00;53.70
59162;DHT22;44942;48.936;8.260;2023-08-06T17:54:22;24.10;54.20
59162;DHT22;44942;48.936;8.260;2023-08-06T17:59:24;24.10;54.60
59162;DHT22;44942;48.936;8.260;2023-08-06T18:04:25;24.10;54.90
59162;DHT22;44942;48.936;8.260;2023-08-06T18:09:25;24.10;54.80
59162;DHT22;44942;48.936;8.260;2023-08-06T18:14:26;24.10;54.60
59162;DHT22;44942;48.936;8.260;2023-08-06T18:19:26;24.10;54.60
59162;DHT22;44942;48.936;8.260;2023-08-06T18:24:28;24.10;54.70
59162;DHT22;44942;48.936;8.260;2023-08-06T18:29:28;24.10;54.80
59162;DHT22;44942;48.936;8.260;2023-08-06T18:34:29;24.10;54.50
59162;DHT22;44942;48.936;8.260;2023-08-06T18:39:30;24.10;54.50
59162;DHT22;44942;48.936;8.260;2023-08-06T18:44:30;24.10;54.30
59162;DHT22;44942;48.936;8.260;2023-08-06T18:49:31;24.10;54.30
59162;DHT22;44942;48.936;8.260;2023-08-06T18:54:31;24.10;54.30
59162;DHT22;44942;48.936;8.260;2023-08-06T18:59:32;24.20;54.40
59162;DHT22;44942;48.936;8.260;2023-08-06T19:04:33;24.20;54.40
59162;DHT22;44942;48.936;8.260;2023-08-06T19:09:34;24.20;54.40
59162;DHT22;44942;48.936;8.260;2023-08-06T19:14:34;24.30;54.40
59162;DHT22;44942;48.936;8.260;2023-08-06T19:19:35;24.20;54.40
59162;DHT22;44942;48.936;8.260;2023-08-06T19:24:35;24.20;54.40
59162;DHT22;44942;48.936;8.260;2023-08-06T19:29:36;24.30;54.50
59162;DHT22;44942;48.936;8.260;2023-08-06T19:34:37;24.20;54.40
59162;DHT22;44942;48.936;8.260;2023-08-06T19:39:37;24.30;54.30
59162;DHT22;44942;48.936;8.260;2023-08-06T19:44:38;24.30;54.10
59162;DHT22;44942;48.936;8.260;2023-08-06T19:49:39;24.30;54.10
59162;DHT22;44942;48.936;8.260;2023-08-06T19:54:39;24.20;54.00
59162;DHT22;44942;48.936;8.260;2023-08-06T19:59:40;24.30;53.70
59162;DHT22;44942;48.936;8.260;2023-08-06T20:04:40;24.30;53.60
59162;DHT22;44942;48.936;8.260;2023-08-06T20:09:41;24.30;53.90
59162;DHT22;44942;48.936;8.260;2023-08-06T20:14:41;24.30;53.20
59162;DHT22;44942;48.936;8.260;2023-08-06T20:19:42;24.30;52.90
59162;DHT22;44942;48.936;8.260;2023-08-06T20:24:43;24.30;52.80
59162;DHT22;44942;48.936;8.260;2023-08-06T20:29:43;24.20;52.70
59162;DHT22;44942;48.936;8.260;2023-08-06T20:34:44;24.20;52.60
59162;DHT22;44942;48.936;8.260;2023-08-06T20:39:44;24.20;52.50
59162;DHT22;44942;48.936;8.260;2023-08-06T20:44:45;24.20;53.20
59162;DHT22;44942;48.936;8.260;2023-08-06T20:49:46;24.20;52.40
59162;DHT22;44942;48.936;8.260;2023-08-06T20:54:47;24.20;52.40
59162;DHT22;44942;48.936;8.260;2023-08-06T20:59:47;24.20;52.40
59162;DHT22;44942;48.936;8.260;2023-08-06T21:04:48;24.10;52.30
59162;DHT22;44942;48.936;8.260;2023-08-06T21:09:49;24.10;52.30
59162;DHT22;44942;48.936;8.260;2023-08-06T21:14:49;24.10;52.30
59162;DHT22;44942;48.936;8.260;2023-08-06T21:19:50;24.10;52.30
59162;DHT22;44942;48.936;8.260;2023-08-06T21:24:51;24.10;52.30
59162;DHT22;44942;48.936;8.260;2023-08-06T21:29:51;24.10;52.30
59162;DHT22;44942;48.936;8.260;2023-08-06T21:34:52;24.10;52.30
59162;DHT22;44942;48.936;8.260;2023-08-06T21:39:52;24.10;52.30
59162;DHT22;44942;48.936;8.260;2023-08-06T21:44:53;24.10;52.30
59162;DHT22;44942;48.936;8.260;2023-08-06T21:49:54;24.10;52.30
59162;DHT22;44942;48.936;8.260;2023-08-06T21:54:54;24.10;52.30
59162;DHT22;44942;48.936;8.260;2023-08-06T21:59:55;24.10;52.20
59162;DHT22;44942;48.936;8.260;2023-08-06T22:04:55;24.10;52.20
59162;DHT22;44942;48.936;8.260;2023-08-06T22:09:56;24.10;52.20
59162;DHT22;44942;48.936;8.260;2023-08-06T22:14:57;24.00;52.10
59162;DHT22;44942;48.936;8.260;2023-08-06T22:19:57;24.00;52.00
59162;DHT22;44942;48.936;8.260;2023-08-06T22:24:58;24.00;52.00
59162;DHT22;44942;48.936;8.260;2023-08-06T22:29:59;24.00;51.90
59162;DHT22;44942;48.936;8.260;2023-08-06T22:34:59;24.00;51.90
59162;DHT22;44942;48.936;8.260;2023-08-06T22:40:00;24.00;51.90
59162;DHT22;44942;48.936;8.260;2023-08-06T22:45:00;24.00;51.80
59162;DHT22;44942;48.936;8.260;2023-08-06T22:50:01;24.00;51.90
59162;DHT22;44942;48.936;8.260;2023-08-06T22:55:04;24.00;51.80
59162;DHT22;44942;48.936;8.260;2023-08-06T23:00:05;24.00;51.70
59162;DHT22;44942;48.936;8.260;2023-08-06T23:05:06;24.00;51.70
59162;DHT22;44942;48.936;8.260;2023-08-06T23:10:07;23.90;51.70
59162;DHT22;44942;48.936;8.260;2023-08-06T23:15:08;23.90;52.40
59162;DHT22;44942;48.936;8.260;2023-08-06T23:20:09;23.90;51.80
59162;DHT22;44942;48.936;8.260;2023-08-06T23:25:10;23.90;51.60
59162;DHT22;44942;48.936;8.260;2023-08-06T23:30:11;23.90;51.60
59162;DHT22;44942;48.936;8.260;2023-08-06T23:35:11;23.90;51.60
59162;DHT22;44942;48.936;8.260;2023-08-06T23:40:12;23.90;51.50
59162;DHT22;44942;48.936;8.260;2023-08-06T23:45:13;23.90;51.80
59162;DHT22;44942;48.936;8.260;2023-08-06T23:50:14;23.90;51.50
59162;DHT22;44942;48.936;8.260;2023-08-06T23:55:15;23.90;51.40
